Aérodrome :
LOGIN :

S'inscrire | Disclaimer

   EN    FR    IT 

 










Légende :    VFR   VFR Marginal   IFR   IFR Intensif   IFR Très Intensif
Visi : 
Plafond : 
>= 8 km
>= 3000ft
5 à 8 km
1000 à 3000 ft
1500m à 5 km
500 à 1000 ft
800 à 1500m
200 à 500 ft
< 800m
< 200 ft
Symboles :   Orages  Brouillard  Fortes neiges  Fortes précipitations  Vent > 20 kt
SIGMETs :   Divers  Orages  Givrage  Turbulence  Onde Orograph.  Cendres Volcan.






- Altitude de l'aérodrome : 17 ft
- Code IATA : DND


EGPN - Dundee

DERNIER METAR :
  • 171420Z 25003KT CAVOK 06/04 Q1017

METARs EXPIRÉS :
  • 171350Z 24005KT CAVOK 06/04 Q1016
  • 171320Z 25004KT CAVOK 05/03 Q1016
  • 171250Z 25005KT CAVOK 05/03 Q1016
  • 171220Z VRB02KT CAVOK 05/03 Q1016
  • 171150Z 27003KT CAVOK 04/02 Q1016

TAF TAF EGPN
Valide du 17 à 15h jusqu'au 17 à 21h UTC


171359Z 1715/1721 24008KT 9999 FEW030



MET'MAP, la Météo Aéronautique d'un coup d'oeil ! - Copyright ORBIFLY Décembre 2007 - Disclaimer

ORBIFLY MET'MAP TEAM :

Programmation & Développement : Alexandra Zaïnal
Conception & Développement : Baudouin d'Aumeries
Co-Programmation & Développement : Marc-Olivier Méhu
Soutien technique & logistique : Manuel Goepfert

Contact : metmap@orbifly.com




SOURCES & CREDITS :

   NOAA